createdAt,value
2017-11-24T00:00:51.536Z,1003.27
2017-11-24T00:01:51.512Z,1003.27
2017-11-24T00:02:51.491Z,1003.28
2017-11-24T00:03:51.469Z,1003.34
2017-11-24T00:04:51.447Z,1003.31
2017-11-24T00:05:51.433Z,1003.33
2017-11-24T00:06:51.400Z,1003.27
2017-11-24T00:07:51.380Z,1003.30
2017-11-24T00:08:51.360Z,1003.29
2017-11-24T00:09:51.334Z,1003.28
2017-11-24T00:10:51.311Z,1003.31
2017-11-24T00:11:51.290Z,1003.28
2017-11-24T00:12:51.267Z,1003.30
2017-11-24T00:13:51.244Z,1003.21
2017-11-24T00:14:51.220Z,1003.24
2017-11-24T00:15:51.201Z,1003.20
2017-11-24T00:16:51.177Z,1003.21
2017-11-24T00:17:51.156Z,1003.16
2017-11-24T00:18:51.133Z,1003.16
2017-11-24T00:19:51.112Z,1003.07
2017-11-24T00:20:51.089Z,1003.07
2017-11-24T00:21:51.065Z,1003.09
2017-11-24T00:22:51.044Z,1003.11
2017-11-24T00:23:51.022Z,1003.09
2017-11-24T00:24:51.007Z,1003.04
2017-11-24T00:25:50.974Z,1002.98
2017-11-24T00:26:50.955Z,1002.99
2017-11-24T00:27:50.936Z,1003.03
2017-11-24T00:28:50.917Z,1003.03
2017-11-24T00:29:50.889Z,1003.04
2017-11-24T00:30:50.866Z,1003.02
2017-11-24T00:31:50.846Z,1003.01
2017-11-24T00:32:50.824Z,1002.99
2017-11-24T00:33:50.799Z,1002.94
2017-11-24T00:34:50.779Z,1002.99
2017-11-24T00:35:50.755Z,1003.00
2017-11-24T00:36:50.732Z,1002.94
2017-11-24T00:37:50.713Z,1002.97
2017-11-24T00:38:50.690Z,1002.95
2017-11-24T00:39:50.670Z,1002.98
2017-11-24T00:40:50.645Z,1003.02
2017-11-24T00:41:50.623Z,1002.95
2017-11-24T00:42:50.601Z,1002.90
2017-11-24T00:43:50.580Z,1002.89
2017-11-24T00:44:50.556Z,1002.87
2017-11-24T00:45:50.534Z,1002.89
2017-11-24T00:46:50.513Z,1002.90
2017-11-24T00:47:50.491Z,1002.89
2017-11-24T00:48:50.469Z,1002.88
2017-11-24T00:49:50.445Z,1002.91
2017-11-24T00:50:50.425Z,1002.90
2017-11-24T00:51:50.403Z,1002.92
2017-11-24T00:52:50.380Z,1002.94
2017-11-24T00:53:50.359Z,1002.99
2017-11-24T00:54:50.337Z,1002.99
2017-11-24T00:55:50.316Z,1003.04
2017-11-24T00:56:50.294Z,1003.00
2017-11-24T00:57:50.269Z,1002.97
2017-11-24T00:58:50.249Z,1002.97
2017-11-24T00:59:50.227Z,1003.00
2017-11-24T01:00:50.206Z,1003.06
2017-11-24T01:01:50.183Z,1003.06
2017-11-24T01:02:50.162Z,1003.03
2017-11-24T01:03:50.139Z,1002.98
2017-11-24T01:04:50.117Z,1002.96
2017-11-24T01:05:50.097Z,1002.92
2017-11-24T01:06:50.077Z,1002.95
2017-11-24T01:07:50.051Z,1002.97
2017-11-24T01:08:50.030Z,1002.98
2017-11-24T01:09:50.007Z,1003.01
2017-11-24T01:10:49.990Z,1003.02
2017-11-24T01:11:49.966Z,1003.01
2017-11-24T01:12:49.943Z,1002.99
2017-11-24T01:13:49.921Z,1002.99
2017-11-24T01:14:49.902Z,1003.02
2017-11-24T01:15:49.879Z,1002.99
2017-11-24T01:16:49.856Z,1002.94
2017-11-24T01:17:49.834Z,1002.97
2017-11-24T01:18:49.814Z,1003.03
2017-11-24T01:19:49.792Z,1002.97
2017-11-24T01:20:49.769Z,1002.95
2017-11-24T01:21:49.747Z,1002.89
2017-11-24T01:22:49.729Z,1002.88
2017-11-24T01:23:49.708Z,1002.84
2017-11-24T01:24:49.683Z,1002.83
2017-11-24T01:25:49.664Z,1002.81
2017-11-24T01:26:49.640Z,1002.78
2017-11-24T01:27:49.620Z,1002.72
2017-11-24T01:28:49.597Z,1002.70
2017-11-24T01:29:49.575Z,1002.68
2017-11-24T01:30:49.555Z,1002.71
2017-11-24T01:31:49.532Z,1002.69
2017-11-24T01:32:49.508Z,1002.67
2017-11-24T01:33:49.488Z,1002.61
2017-11-24T01:34:49.476Z,1002.58
2017-11-24T01:35:49.446Z,1002.58
2017-11-24T01:36:49.424Z,1002.58
2017-11-24T01:37:49.403Z,1002.58
2017-11-24T01:38:49.381Z,1002.63
2017-11-24T01:39:49.361Z,1002.69
2017-11-24T01:40:49.338Z,1002.69
2017-11-24T01:41:49.316Z,1002.65
2017-11-24T01:42:49.295Z,1002.69
2017-11-24T01:43:49.275Z,1002.68
2017-11-24T01:44:49.254Z,1002.63
2017-11-24T01:45:49.232Z,1002.65
2017-11-24T01:46:49.207Z,1002.63
2017-11-24T01:47:49.188Z,1002.63
2017-11-24T01:48:49.167Z,1002.62
2017-11-24T01:49:49.146Z,1002.60
2017-11-24T01:50:49.130Z,1002.62
2017-11-24T01:51:49.101Z,1002.58
2017-11-24T01:52:49.080Z,1002.51
2017-11-24T01:53:49.060Z,1002.44
2017-11-24T01:54:49.035Z,1002.41
2017-11-24T01:55:49.017Z,1002.37
2017-11-24T01:56:48.996Z,1002.37
2017-11-24T01:57:48.971Z,1002.32
2017-11-24T01:58:48.951Z,1002.30
2017-11-24T01:59:48.929Z,1002.28
2017-11-24T02:00:48.907Z,1002.28
2017-11-24T02:01:48.884Z,1002.27
2017-11-24T02:02:48.863Z,1002.25
2017-11-24T02:03:48.851Z,1002.22
2017-11-24T02:04:48.821Z,1002.18
2017-11-24T02:05:48.798Z,1002.08
2017-11-24T02:06:48.779Z,1002.00
2017-11-24T02:07:48.759Z,1002.03
2017-11-24T02:08:48.736Z,1002.09
2017-11-24T02:09:48.714Z,1002.07
2017-11-24T02:10:48.692Z,1002.07
2017-11-24T02:11:48.670Z,1002.07
2017-11-24T02:12:48.649Z,1002.07
2017-11-24T02:13:48.627Z,1002.07
2017-11-24T02:14:48.607Z,1001.97
2017-11-24T02:15:48.584Z,1001.91
2017-11-24T02:16:48.570Z,1001.92
2017-11-24T02:17:48.542Z,1001.93
2017-11-24T02:18:48.520Z,1001.98
2017-11-24T02:19:48.500Z,1001.94
2017-11-24T02:20:48.479Z,1001.98
2017-11-24T02:21:48.457Z,1002.02
2017-11-24T02:22:48.436Z,1002.03
2017-11-24T02:23:48.412Z,1002.04
2017-11-24T02:24:48.394Z,1002.01
2017-11-24T02:25:48.371Z,1001.98
2017-11-24T02:26:48.350Z,1001.94
2017-11-24T02:27:48.327Z,1001.90
2017-11-24T02:28:48.308Z,1001.81
2017-11-24T02:29:48.291Z,1001.77
2017-11-24T02:30:48.264Z,1001.77
2017-11-24T02:31:48.242Z,1001.78
2017-11-24T02:32:48.223Z,1001.77
2017-11-24T02:33:48.200Z,1001.83
2017-11-24T02:34:48.179Z,1001.83
2017-11-24T02:35:48.159Z,1001.87
2017-11-24T02:36:48.137Z,1001.87
2017-11-24T02:37:48.113Z,1001.83
2017-11-24T02:38:48.090Z,1001.75
2017-11-24T02:39:48.071Z,1001.74
2017-11-24T02:40:48.049Z,1001.71
2017-11-24T02:41:48.029Z,1001.67
2017-11-24T02:42:48.007Z,1001.66
2017-11-24T02:43:47.988Z,1001.63
2017-11-24T02:44:47.968Z,1001.62
2017-11-24T02:45:47.942Z,1001.60
2017-11-24T02:46:47.925Z,1001.58
2017-11-24T02:47:47.902Z,1001.59
2017-11-24T02:48:47.879Z,1001.57
2017-11-24T02:49:47.857Z,1001.59
2017-11-24T02:50:47.835Z,1001.58
2017-11-24T02:51:47.815Z,1001.58
2017-11-24T02:52:47.792Z,1001.60
2017-11-24T02:53:47.767Z,1001.59
2017-11-24T02:54:47.750Z,1001.53
2017-11-24T02:55:47.727Z,1001.47
2017-11-24T02:56:47.707Z,1001.47
2017-11-24T02:57:47.688Z,1001.45
2017-11-24T02:58:47.666Z,1001.47
2017-11-24T02:59:47.642Z,1001.50
2017-11-24T03:00:47.623Z,1001.57
2017-11-24T03:01:47.599Z,1001.63
2017-11-24T03:02:47.578Z,1001.64
2017-11-24T03:03:47.557Z,1001.68
2017-11-24T03:04:47.536Z,1001.66
2017-11-24T03:05:47.520Z,1001.68
2017-11-24T03:06:47.493Z,1001.70
2017-11-24T03:07:47.473Z,1001.74
2017-11-24T03:08:47.450Z,1001.70
2017-11-24T03:09:47.425Z,1001.72
2017-11-24T03:10:47.407Z,1001.78
2017-11-24T03:11:47.386Z,1001.80
2017-11-24T03:12:47.366Z,1001.81
2017-11-24T03:13:47.343Z,1001.89
2017-11-24T03:14:47.321Z,1001.92
2017-11-24T03:15:47.302Z,1001.93
2017-11-24T03:16:47.280Z,1001.94
2017-11-24T03:17:47.257Z,1002.02
2017-11-24T03:18:47.236Z,1001.98
2017-11-24T03:19:47.214Z,1001.95
2017-11-24T03:20:47.194Z,1001.97
2017-11-24T03:21:47.172Z,1001.87
2017-11-24T03:22:47.150Z,1001.83
2017-11-24T03:23:47.126Z,1001.78
2017-11-24T03:24:47.105Z,1001.79
2017-11-24T03:25:47.086Z,1001.73
2017-11-24T03:26:47.064Z,1001.73
2017-11-24T03:27:47.042Z,1001.69
2017-11-24T03:28:47.018Z,1001.69
2017-11-24T03:29:46.996Z,1001.68
2017-11-24T03:30:46.975Z,1001.70
2017-11-24T03:31:46.952Z,1001.65
2017-11-24T03:32:46.929Z,1001.64
2017-11-24T03:33:46.906Z,1001.58
2017-11-24T03:34:46.882Z,1001.53
2017-11-24T03:35:46.864Z,1001.55
2017-11-24T03:36:46.844Z,1001.57
2017-11-24T03:37:46.818Z,1001.61
2017-11-24T03:38:46.797Z,1001.67
2017-11-24T03:39:46.772Z,1001.71
2017-11-24T03:40:46.751Z,1001.78
2017-11-24T03:41:46.725Z,1001.75
2017-11-24T03:42:46.704Z,1001.77
2017-11-24T03:43:46.684Z,1001.80
2017-11-24T03:44:46.662Z,1001.89
2017-11-24T03:45:46.637Z,1001.94
2017-11-24T03:46:46.615Z,1001.98
2017-11-24T03:47:46.593Z,1002.04
2017-11-24T03:48:46.570Z,1002.04
2017-11-24T03:49:46.548Z,1002.00
2017-11-24T03:50:46.524Z,1002.01
2017-11-24T03:51:46.501Z,1001.99
2017-11-24T03:52:46.480Z,1002.03
2017-11-24T03:53:46.459Z,1002.02
2017-11-24T03:54:46.435Z,1001.99
2017-11-24T03:55:46.415Z,1001.92
2017-11-24T03:56:46.387Z,1001.89
2017-11-24T03:57:46.371Z,1001.89
2017-11-24T03:58:46.343Z,1001.88
2017-11-24T03:59:46.321Z,1001.82
2017-11-24T04:00:46.297Z,1001.75
2017-11-24T04:01:46.276Z,1001.72
2017-11-24T04:02:46.256Z,1001.75
2017-11-24T04:03:46.232Z,1001.80
2017-11-24T04:04:46.209Z,1001.77
2017-11-24T04:05:46.188Z,1001.74
2017-11-24T04:06:46.165Z,1001.67
2017-11-24T04:07:46.142Z,1001.62
2017-11-24T04:08:46.119Z,1001.58
2017-11-24T04:09:46.095Z,1001.55
2017-11-24T04:10:46.073Z,1001.54
2017-11-24T04:11:46.052Z,1001.48
2017-11-24T04:12:46.033Z,1001.44
2017-11-24T04:13:46.006Z,1001.42
2017-11-24T04:14:45.979Z,1001.39
2017-11-24T04:15:45.965Z,1001.39
2017-11-24T04:16:45.939Z,1001.35
2017-11-24T04:17:45.913Z,1001.31
2017-11-24T04:18:45.892Z,1001.29
2017-11-24T04:19:45.875Z,1001.27
2017-11-24T04:20:45.846Z,1001.18
2017-11-24T04:21:45.823Z,1001.07
2017-11-24T04:22:45.800Z,1001.14
2017-11-24T04:23:45.781Z,1001.18
2017-11-24T04:24:45.757Z,1001.24
2017-11-24T04:25:45.731Z,1001.23
2017-11-24T04:26:45.719Z,1001.18
2017-11-24T04:27:45.694Z,1001.14
2017-11-24T04:28:45.673Z,1001.09
2017-11-24T04:29:45.645Z,1001.08
2017-11-24T04:30:45.624Z,1001.12
2017-11-24T04:31:45.602Z,1001.08
2017-11-24T04:32:45.582Z,1001.05
2017-11-24T04:33:45.556Z,1001.00
2017-11-24T04:34:45.536Z,1000.96
2017-11-24T04:35:45.511Z,1000.89
2017-11-24T04:36:45.495Z,1000.87
2017-11-24T04:37:45.470Z,1000.88
2017-11-24T04:38:45.447Z,1000.94
2017-11-24T04:39:45.424Z,1000.90
2017-11-24T04:40:45.401Z,1000.84
2017-11-24T04:41:45.378Z,1000.73
2017-11-24T04:42:45.357Z,1000.68
2017-11-24T04:43:45.336Z,1000.56
2017-11-24T04:44:45.311Z,1000.50
2017-11-24T04:45:45.288Z,1000.40
2017-11-24T04:46:45.266Z,1000.34
2017-11-24T04:47:45.249Z,1000.37
2017-11-24T04:48:45.221Z,1000.50
2017-11-24T04:49:45.199Z,1000.56
2017-11-24T04:50:45.177Z,1000.49
2017-11-24T04:51:45.155Z,1000.39
2017-11-24T04:52:45.132Z,1000.37
2017-11-24T04:53:45.105Z,1000.38
2017-11-24T04:54:45.089Z,1000.38
2017-11-24T04:55:45.065Z,1000.39
2017-11-24T04:56:45.043Z,1000.40
2017-11-24T04:57:45.023Z,1000.32
2017-11-24T04:58:45.002Z,1000.28
2017-11-24T04:59:44.975Z,1000.10
2017-11-24T05:00:44.953Z,999.97
2017-11-24T05:01:44.929Z,999.81
2017-11-24T05:02:44.907Z,999.68
2017-11-24T05:03:44.884Z,999.66
2017-11-24T05:04:44.863Z,999.65
2017-11-24T05:05:44.842Z,999.70
2017-11-24T05:06:44.817Z,999.72
2017-11-24T05:07:44.796Z,999.77
2017-11-24T05:08:44.777Z,999.79
2017-11-24T05:09:44.754Z,999.79
2017-11-24T05:10:44.729Z,999.75
2017-11-24T05:11:44.705Z,999.79
2017-11-24T05:12:44.684Z,999.80
2017-11-24T05:13:44.659Z,999.72
2017-11-24T05:14:44.638Z,999.70
2017-11-24T05:15:44.622Z,999.73
2017-11-24T05:16:44.594Z,999.79
2017-11-24T05:17:44.572Z,999.81
2017-11-24T05:18:44.549Z,999.83
2017-11-24T05:19:44.526Z,999.89
2017-11-24T05:20:44.504Z,999.87
2017-11-24T05:21:44.481Z,999.91
2017-11-24T05:22:44.460Z,999.96
2017-11-24T05:23:44.438Z,1000.02
2017-11-24T05:24:44.414Z,1000.14
2017-11-24T05:25:44.391Z,1000.24
2017-11-24T05:26:44.370Z,1000.27
2017-11-24T05:27:44.350Z,1000.29
2017-11-24T05:28:44.324Z,1000.30
2017-11-24T05:29:44.300Z,1000.29
2017-11-24T05:30:44.278Z,1000.27
2017-11-24T05:31:44.258Z,1000.34
2017-11-24T05:32:44.235Z,1000.32
2017-11-24T05:33:44.211Z,1000.34
2017-11-24T05:34:44.189Z,1000.33
2017-11-24T05:35:44.169Z,1000.33
2017-11-24T05:36:44.155Z,1000.34
2017-11-24T05:37:44.120Z,1000.32
2017-11-24T05:38:44.099Z,1000.29
2017-11-24T05:39:44.078Z,1000.25
2017-11-24T05:40:44.056Z,1000.24
2017-11-24T05:41:44.041Z,1000.26
2017-11-24T05:42:44.008Z,1000.29
2017-11-24T05:43:43.987Z,1000.35
2017-11-24T05:44:43.965Z,1000.38
2017-11-24T05:45:43.942Z,1000.43
2017-11-24T05:46:43.925Z,1000.44
2017-11-24T05:47:43.897Z,1000.43
2017-11-24T05:48:43.873Z,1000.46
2017-11-24T05:49:43.853Z,1000.49
2017-11-24T05:50:43.830Z,1000.54
2017-11-24T05:51:43.809Z,1000.60
2017-11-24T05:52:43.786Z,1000.66
2017-11-24T05:53:43.762Z,1000.71
2017-11-24T05:54:43.740Z,1000.77
2017-11-24T05:55:43.717Z,1000.83
2017-11-24T05:56:43.691Z,1000.87
2017-11-24T05:57:43.671Z,1000.83
2017-11-24T05:58:43.650Z,1000.74
2017-11-24T05:59:43.635Z,1000.68
2017-11-24T06:00:43.606Z,1000.61
2017-11-24T06:01:43.583Z,1000.48
2017-11-24T06:02:43.561Z,1000.38
2017-11-24T06:03:43.540Z,1000.39
2017-11-24T06:04:43.517Z,1000.44
2017-11-24T06:05:43.491Z,1000.48
2017-11-24T06:06:43.467Z,1000.53
2017-11-24T06:07:43.455Z,1000.64
2017-11-24T06:08:43.426Z,1000.74
2017-11-24T06:09:43.403Z,1000.88
2017-11-24T06:10:43.380Z,1000.98
2017-11-24T06:11:43.360Z,1001.03
2017-11-24T06:12:43.337Z,1001.05
2017-11-24T06:13:43.307Z,1001.11
2017-11-24T06:14:43.289Z,1001.17
2017-11-24T06:15:43.268Z,1001.26
2017-11-24T06:16:43.245Z,1001.35
2017-11-24T06:17:43.229Z,1001.37
2017-11-24T06:18:43.201Z,1001.31
2017-11-24T06:19:43.179Z,1001.21
2017-11-24T06:20:43.153Z,1001.12
2017-11-24T06:21:43.130Z,1001.10
2017-11-24T06:22:43.108Z,1001.12
2017-11-24T06:23:43.085Z,1001.18
2017-11-24T06:24:43.062Z,1001.23
2017-11-24T06:25:43.041Z,1001.32
2017-11-24T06:26:43.019Z,1001.45
2017-11-24T06:27:42.994Z,1001.54
2017-11-24T06:28:42.972Z,1001.54
2017-11-24T06:29:42.947Z,1001.68
2017-11-24T06:30:42.926Z,1001.67
2017-11-24T06:31:42.906Z,1001.71
2017-11-24T06:32:42.885Z,1001.72
2017-11-24T06:33:42.859Z,1001.68
2017-11-24T06:34:42.833Z,1001.65
2017-11-24T06:35:42.814Z,1001.65
2017-11-24T06:36:42.792Z,1001.56
2017-11-24T06:37:42.763Z,1001.46
2017-11-24T06:38:42.743Z,1001.37
2017-11-24T06:39:42.723Z,1001.28
2017-11-24T06:40:42.718Z,1001.20
2017-11-24T06:41:42.674Z,1001.13
2017-11-24T06:42:42.653Z,1000.98
2017-11-24T06:43:42.627Z,1000.73
2017-11-24T06:44:42.605Z,1000.59
2017-11-24T06:45:42.593Z,1000.54
2017-11-24T06:46:42.561Z,1000.53
2017-11-24T06:47:42.545Z,1000.58
2017-11-24T06:48:42.515Z,1000.61
2017-11-24T06:49:42.495Z,1000.57
2017-11-24T06:50:42.473Z,1000.58
2017-11-24T06:51:42.452Z,1000.56
2017-11-24T06:52:42.428Z,1000.49
2017-11-24T06:53:42.400Z,1000.39
2017-11-24T06:54:42.383Z,1000.34
2017-11-24T06:55:42.369Z,1000.29
2017-11-24T06:56:49.496Z,1000.23
2017-11-24T06:58:35.704Z,1000.22
2017-11-24T06:59:35.664Z,1000.18
2017-11-24T07:01:30.007Z,1000.20
2017-11-24T07:02:29.981Z,1000.17
2017-11-24T07:03:29.956Z,1000.20
2017-11-24T07:04:29.937Z,1000.19
2017-11-24T07:05:29.913Z,1000.17
2017-11-24T07:06:29.891Z,1000.09
2017-11-24T07:07:29.867Z,1000.05
2017-11-24T07:08:29.842Z,1000.00
2017-11-24T07:09:29.823Z,999.95
2017-11-24T07:10:29.793Z,999.94
2017-11-24T07:11:29.776Z,999.88
2017-11-24T07:12:29.755Z,1000.03
2017-11-24T07:13:29.730Z,1000.15
2017-11-24T07:14:29.707Z,1000.34
2017-11-24T07:15:29.689Z,1000.50
2017-11-24T07:16:29.657Z,1000.68
2017-11-24T07:17:29.639Z,1000.73
2017-11-24T07:18:29.613Z,1000.78
2017-11-24T07:19:29.592Z,1000.82
2017-11-24T07:20:29.567Z,1000.84
2017-11-24T07:21:29.543Z,1000.86
2017-11-24T07:22:29.522Z,1000.94
2017-11-24T07:23:29.496Z,1000.98
2017-11-24T07:24:29.479Z,1001.07
2017-11-24T07:25:29.454Z,1001.05
2017-11-24T07:26:29.430Z,1001.07
2017-11-24T07:27:29.416Z,1001.06
2017-11-24T07:28:29.386Z,1001.10
2017-11-24T07:29:29.361Z,1001.11
2017-11-24T07:30:29.338Z,1001.11
2017-11-24T07:31:29.316Z,1001.12
2017-11-24T07:32:29.293Z,1001.06
2017-11-24T07:33:29.274Z,1001.04
2017-11-24T07:34:29.247Z,1001.01
2017-11-24T07:35:29.223Z,1000.94
2017-11-24T07:36:29.201Z,1000.97
2017-11-24T07:37:29.177Z,1001.01
2017-11-24T07:38:29.155Z,1001.14
2017-11-24T07:39:29.132Z,1001.26
2017-11-24T07:40:29.111Z,1001.32
2017-11-24T07:41:29.088Z,1001.44
2017-11-24T07:42:29.064Z,1001.47
2017-11-24T07:43:29.039Z,1001.51
2017-11-24T07:44:29.018Z,1001.50
2017-11-24T07:45:28.996Z,1001.48
2017-11-24T07:46:28.970Z,1001.50
2017-11-24T07:47:28.961Z,1001.52
2017-11-24T07:48:28.934Z,1001.44
2017-11-24T07:49:28.932Z,1001.38
2017-11-24T07:50:28.897Z,1001.38
2017-11-24T07:51:28.892Z,1001.43
2017-11-24T07:52:28.832Z,1001.43
2017-11-24T07:53:28.810Z,1001.47
2017-11-24T07:54:28.784Z,1001.50
2017-11-24T07:55:28.761Z,1001.56
2017-11-24T07:56:28.740Z,1001.55
2017-11-24T07:57:28.719Z,1001.62
2017-11-24T07:58:28.689Z,1001.71
2017-11-24T07:59:28.676Z,1001.71
2017-11-24T08:00:28.666Z,1001.74
2017-11-24T08:01:28.628Z,1001.80
2017-11-24T08:02:28.603Z,1001.81
2017-11-24T08:03:28.582Z,1001.80
2017-11-24T08:04:28.559Z,1001.84
2017-11-24T08:05:28.540Z,1001.85
2017-11-24T08:06:28.513Z,1001.86
2017-11-24T08:07:28.490Z,1001.92
2017-11-24T08:08:28.466Z,1001.97
2017-11-24T08:09:28.446Z,1002.06
2017-11-24T08:10:28.422Z,1002.09
2017-11-24T08:11:28.404Z,1002.17
2017-11-24T08:12:28.375Z,1002.18
2017-11-24T08:13:28.354Z,1002.23
2017-11-24T08:14:28.330Z,1002.19
2017-11-24T08:15:28.306Z,1002.16
2017-11-24T08:16:28.283Z,1002.16
2017-11-24T08:17:28.262Z,1002.14
2017-11-24T08:18:28.235Z,1002.16
2017-11-24T08:19:28.216Z,1002.19
2017-11-24T08:20:28.188Z,1002.16
2017-11-24T08:21:28.173Z,1002.18
2017-11-24T08:22:28.147Z,1002.21
2017-11-24T08:23:28.131Z,1002.15
2017-11-24T08:24:28.101Z,1002.22
2017-11-24T08:25:28.080Z,1002.22
2017-11-24T08:26:28.055Z,1002.20
2017-11-24T08:27:28.032Z,1002.21
2017-11-24T08:28:28.010Z,1002.22
2017-11-24T08:29:27.990Z,1002.19
2017-11-24T08:30:27.964Z,1002.16
2017-11-24T08:31:27.943Z,1002.05
2017-11-24T08:32:27.922Z,1002.06
2017-11-24T08:33:27.902Z,1002.01
2017-11-24T08:34:27.870Z,1002.01
2017-11-24T08:35:27.853Z,1002.08
2017-11-24T08:36:27.837Z,1002.07
2017-11-24T08:37:27.808Z,1002.12
2017-11-24T08:38:27.783Z,1002.16
2017-11-24T08:39:27.761Z,1002.21
2017-11-24T08:40:27.740Z,1002.26
2017-11-24T08:41:27.740Z,1002.28
2017-11-24T08:42:27.698Z,1002.24
2017-11-24T08:43:27.671Z,1002.27
2017-11-24T08:44:27.649Z,1002.29
2017-11-24T08:45:27.627Z,1002.30
2017-11-24T08:46:27.606Z,1002.32
2017-11-24T08:47:27.581Z,1002.30
2017-11-24T08:48:27.559Z,1002.34
2017-11-24T08:49:27.537Z,1002.30
2017-11-24T08:50:27.512Z,1002.33
2017-11-24T08:51:27.491Z,1002.23
2017-11-24T08:52:27.469Z,1002.21
2017-11-24T08:53:27.449Z,1002.10
2017-11-24T08:54:27.423Z,1002.07
2017-11-24T08:55:27.401Z,1002.07
2017-11-24T08:56:27.378Z,1002.03
2017-11-24T08:57:27.358Z,1002.01
2017-11-24T08:58:27.334Z,1002.01
2017-11-24T08:59:27.308Z,1002.03
2017-11-24T09:00:27.294Z,1002.06
2017-11-24T09:01:27.270Z,1002.04
2017-11-24T09:02:27.242Z,1002.03
2017-11-24T09:03:27.223Z,1002.05
2017-11-24T09:04:27.200Z,1002.14
2017-11-24T09:05:27.180Z,1002.22
2017-11-24T09:06:27.156Z,1002.27
2017-11-24T09:07:27.134Z,1002.33
2017-11-24T09:08:27.113Z,1002.42
2017-11-24T09:09:27.103Z,1002.44
2017-11-24T09:10:27.068Z,1002.50
2017-11-24T09:11:27.044Z,1002.57
2017-11-24T09:12:27.024Z,1002.62
2017-11-24T09:13:27.003Z,1002.71
2017-11-24T09:14:26.982Z,1002.70
2017-11-24T09:15:26.959Z,1002.71
2017-11-24T09:16:26.938Z,1002.68
2017-11-24T09:17:26.923Z,1002.65
2017-11-24T09:18:26.893Z,1002.63
2017-11-24T09:19:26.872Z,1002.63
2017-11-24T09:20:26.849Z,1002.58
2017-11-24T09:21:26.831Z,1002.66
2017-11-24T09:22:26.805Z,1002.71
2017-11-24T09:23:26.783Z,1002.74
2017-11-24T09:24:26.763Z,1002.75
2017-11-24T09:25:26.738Z,1002.76
2017-11-24T09:26:26.716Z,1002.80
2017-11-24T09:27:26.697Z,1002.84
2017-11-24T09:28:26.674Z,1002.82
2017-11-24T09:29:26.653Z,1002.84
2017-11-24T09:30:26.629Z,1002.84
2017-11-24T09:31:26.609Z,1002.86
2017-11-24T09:32:26.586Z,1002.88
2017-11-24T09:33:26.562Z,1002.88
2017-11-24T09:34:26.544Z,1002.87
2017-11-24T09:35:26.521Z,1002.86
2017-11-24T09:36:26.497Z,1002.85
2017-11-24T09:37:26.478Z,1002.86
2017-11-24T09:38:26.457Z,1002.88
2017-11-24T09:39:26.433Z,1002.86
2017-11-24T09:40:26.412Z,1002.82
2017-11-24T09:41:26.390Z,1002.80
2017-11-24T09:42:26.368Z,1002.83
2017-11-24T09:43:26.345Z,1002.84
2017-11-24T09:44:26.321Z,1002.82
2017-11-24T09:45:26.304Z,1002.87
2017-11-24T09:46:26.277Z,1002.95
2017-11-24T09:47:26.257Z,1002.95
2017-11-24T09:48:26.237Z,1002.98
2017-11-24T09:49:26.216Z,1003.04
2017-11-24T09:50:26.206Z,1002.99
2017-11-24T09:51:26.170Z,1003.00
2017-11-24T09:52:26.152Z,1003.04
2017-11-24T09:53:26.126Z,1003.10
2017-11-24T09:54:26.103Z,1003.06
2017-11-24T09:55:26.082Z,1003.07
2017-11-24T09:56:26.066Z,1003.11
2017-11-24T09:57:26.037Z,1003.10
2017-11-24T09:58:26.015Z,1003.11
2017-11-24T09:59:25.995Z,1003.11
2017-11-24T10:00:25.976Z,1003.09
2017-11-24T10:01:25.953Z,1003.13
2017-11-24T10:02:25.930Z,1003.17
2017-11-24T10:03:25.908Z,1003.19
2017-11-24T10:04:25.887Z,1003.24
2017-11-24T10:05:25.865Z,1003.25
2017-11-24T10:06:25.850Z,1003.25
2017-11-24T10:07:25.822Z,1003.29
2017-11-24T10:08:25.799Z,1003.31
2017-11-24T10:09:25.779Z,1003.33
2017-11-24T10:10:25.757Z,1003.36
2017-11-24T10:11:25.736Z,1003.33
2017-11-24T10:12:25.715Z,1003.24
2017-11-24T10:13:25.693Z,1003.24
2017-11-24T10:14:25.667Z,1003.27
2017-11-24T10:15:25.647Z,1003.37
2017-11-24T10:16:25.627Z,1003.39
2017-11-24T10:17:25.607Z,1003.48
2017-11-24T10:18:25.583Z,1003.48
2017-11-24T10:19:25.562Z,1003.48
2017-11-24T10:20:25.541Z,1003.41
2017-11-24T10:21:25.518Z,1003.39
2017-11-24T10:22:25.495Z,1003.41
2017-11-24T10:23:25.474Z,1003.42
2017-11-24T10:24:25.453Z,1003.41
2017-11-24T10:25:25.432Z,1003.43
2017-11-24T10:26:25.412Z,1003.45
2017-11-24T10:27:25.394Z,1003.43
2017-11-24T10:28:25.366Z,1003.41
2017-11-24T10:29:25.348Z,1003.43
2017-11-24T10:30:25.323Z,1003.38
2017-11-24T10:31:25.302Z,1003.39
2017-11-24T10:32:25.279Z,1003.45
2017-11-24T10:33:25.258Z,1003.41
2017-11-24T10:34:25.236Z,1003.46
2017-11-24T10:35:25.222Z,1003.44
2017-11-24T10:36:25.192Z,1003.47
2017-11-24T10:37:25.172Z,1003.48
2017-11-24T10:38:25.148Z,1003.50
2017-11-24T10:39:25.127Z,1003.52
2017-11-24T10:40:25.106Z,1003.55
2017-11-24T10:41:25.082Z,1003.60
2017-11-24T10:42:25.063Z,1003.57
2017-11-24T10:43:25.039Z,1003.59
2017-11-24T10:44:25.019Z,1003.59
2017-11-24T10:45:24.996Z,1003.61
2017-11-24T10:46:24.976Z,1003.59
2017-11-24T10:47:24.951Z,1003.59
2017-11-24T10:48:24.932Z,1003.61
2017-11-24T10:49:24.907Z,1003.55
2017-11-24T10:50:24.889Z,1003.53
2017-11-24T10:51:24.864Z,1003.54
2017-11-24T10:52:24.844Z,1003.47
2017-11-24T10:53:24.825Z,1003.49
2017-11-24T10:54:24.799Z,1003.49
2017-11-24T10:55:24.780Z,1003.49
2017-11-24T10:56:24.756Z,1003.53
2017-11-24T10:57:24.734Z,1003.57
2017-11-24T10:58:24.711Z,1003.58
2017-11-24T10:59:24.691Z,1003.59
2017-11-24T11:00:24.668Z,1003.58
2017-11-24T11:01:24.647Z,1003.59
2017-11-24T11:02:24.622Z,1003.64
2017-11-24T11:03:24.603Z,1003.66
2017-11-24T11:04:24.581Z,1003.70
2017-11-24T11:05:24.557Z,1003.77
2017-11-24T11:06:24.532Z,1003.72
2017-11-24T11:07:24.513Z,1003.69
2017-11-24T11:08:24.491Z,1003.67
2017-11-24T11:09:24.469Z,1003.64
2017-11-24T11:10:24.446Z,1003.65
2017-11-24T11:11:24.426Z,1003.66
2017-11-24T11:12:24.404Z,1003.67
2017-11-24T11:13:24.388Z,1003.73
2017-11-24T11:14:24.361Z,1003.75
2017-11-24T11:15:24.340Z,1003.76
2017-11-24T11:16:24.317Z,1003.74
2017-11-24T11:17:24.296Z,1003.76
2017-11-24T11:18:24.274Z,1003.81
2017-11-24T11:19:24.251Z,1003.79
2017-11-24T11:20:24.232Z,1003.82
2017-11-24T11:21:24.208Z,1003.86
2017-11-24T11:22:24.185Z,1003.83
2017-11-24T11:23:24.168Z,1003.78
2017-11-24T11:24:24.144Z,1003.87
2017-11-24T11:25:24.128Z,1003.85
2017-11-24T11:26:24.101Z,1003.86
2017-11-24T11:27:24.083Z,1003.88
2017-11-24T11:28:24.059Z,1003.87
2017-11-24T11:29:24.037Z,1003.85
2017-11-24T11:30:24.015Z,1003.89
2017-11-24T11:31:23.994Z,1003.90
2017-11-24T11:32:23.974Z,1003.99
2017-11-24T11:33:23.952Z,1003.99
2017-11-24T11:34:23.932Z,1003.98
2017-11-24T11:35:23.908Z,1004.04
2017-11-24T11:36:23.888Z,1004.05
2017-11-24T11:37:23.868Z,1004.12
2017-11-24T11:38:23.847Z,1004.09
2017-11-24T11:39:23.823Z,1004.12
2017-11-24T11:40:23.802Z,1004.13
2017-11-24T11:41:23.780Z,1004.17
2017-11-24T11:42:23.759Z,1004.18
2017-11-24T11:43:23.737Z,1004.16
2017-11-24T11:44:23.714Z,1004.18
2017-11-24T11:45:23.693Z,1004.22
2017-11-24T11:46:23.671Z,1004.23
2017-11-24T11:47:23.651Z,1004.24
2017-11-24T11:48:23.626Z,1004.24
2017-11-24T11:49:23.606Z,1004.25
2017-11-24T11:50:23.589Z,1004.26
2017-11-24T11:51:23.562Z,1004.23
2017-11-24T11:52:23.541Z,1004.19
2017-11-24T11:53:23.519Z,1004.17
2017-11-24T11:54:23.497Z,1004.22
2017-11-24T11:55:23.473Z,1004.20
2017-11-24T11:56:23.451Z,1004.24
2017-11-24T11:57:23.432Z,1004.24
2017-11-24T11:58:23.407Z,1004.28
2017-11-24T11:59:23.386Z,1004.24
2017-11-24T12:00:23.364Z,1004.26
2017-11-24T12:01:23.343Z,1004.27
2017-11-24T12:02:23.333Z,1004.32
2017-11-24T12:03:23.299Z,1004.34
2017-11-24T12:04:23.278Z,1004.30
2017-11-24T12:05:23.258Z,1004.33
2017-11-24T12:06:23.234Z,1004.37
2017-11-24T12:07:23.212Z,1004.40
2017-11-24T12:08:23.191Z,1004.40